ADDS METAR Data INFO
IDs: Format: Raw Decoded Include TAF

Data at: 2147 UTC 15 Dec 2017

KJAQ 152135Z AUTO 00000KT 10SM CLR 19/02 A3009 RMK AO1 T01850017
KJAQ 152115Z AUTO 00000KT 10SM CLR 18/03 A3010 RMK AO1 T01760027
KJAQ 152055Z AUTO 00000KT 10SM CLR 17/03 A3011 RMK AO1 T01740028
KJAQ 152035Z AUTO 00000KT 10SM CLR 17/02 A3012 RMK AO1 T01660017
KJAQ 152015Z AUTO 11005KT 10SM CLR 17/03 A3013 RMK AO1 T01650025
KJAQ 151955Z AUTO 00000KT 10SM CLR 15/05 A3014 RMK AO1 T01530047
KJAQ 151935Z AUTO 19003KT 10SM CLR 16/03 A3015 RMK AO1 T01550031
KJAQ 151915Z AUTO 14003KT 10SM CLR 16/M02 A3016 RMK AO1 T01601018
KJAQ 151855Z AUTO 00000KT 10SM CLR 15/03 A3017 RMK AO1 T01500031
KJAQ 151835Z AUTO 00000KT 10SM CLR 14/04 A3018 RMK AO1 T01380042
KJAQ 151815Z AUTO 00000KT 10SM CLR 13/04 A3019 RMK AO1 T01340039
KJAQ 151755Z AUTO 00000KT 10SM CLR 13/04 A3019 RMK AO1 T01260037 10127 20082
KJAQ 151735Z AUTO 00000KT 10SM CLR 12/03 A3019 RMK AO1 T01150027
KJAQ 151715Z AUTO 36005KT 10SM CLR 11/05 A3019 RMK AO1 T01100046
KJAQ 151655Z AUTO 34008KT 10SM CLR 11/05 A3019 RMK AO1 T01080045
KJAQ 151635Z AUTO 33005KT 10SM CLR 11/04 A3018 RMK AO1 T01120042
KJAQ 151615Z AUTO 34005KT 10SM CLR 10/04 A3017 RMK AO1 T01040042
KJAQ 151555Z AUTO 35004KT 10SM CLR 10/04 A3017 RMK AO1 T00970038
KJAQ 151535Z AUTO 35005KT 10SM CLR 09/03 A3017 RMK AO1 T00900026
KJAQ 151515Z AUTO 31004KT 10SM CLR 09/02 A3018 RMK AO1 T00930018
KJAQ 151455Z AUTO 00000KT 10SM CLR 09/02 A3016 RMK AO1 T00920019
KJAQ 151435Z AUTO 10003KT 10SM CLR 10/03 A3016 RMK AO1 T01010025
KJAQ 151415Z AUTO 00000KT 10SM CLR 09/02 A3017 RMK AO1 T00910023
KJAQ 151355Z AUTO 32004KT 10SM CLR 09/02 A3018 RMK AO1 T00920022
KJAQ 151335Z AUTO 32005KT 10SM CLR 09/02 A3019 RMK AO1 T00920016
KJAQ 151315Z AUTO 34006KT 10SM CLR 11/01 A3019 RMK AO1 T01130007
KJAQ 151255Z AUTO 00000KT 10SM CLR 11/02 A3018 RMK AO1 T01090016
KJAQ 151235Z AUTO 00000KT 10SM CLR 11/03 A3018 RMK AO1 T01110025
KJAQ 151215Z AUTO 00000KT 10SM CLR 11/03 A3018 RMK AO1 T01120026
KJAQ 151155Z AUTO 00000KT 10SM CLR 11/02 A3019 RMK AO1 T01110021 10148 20110
KJAQ 151135Z AUTO 05003KT 10SM CLR 12/03 A3019 RMK AO1 T01180025
KJAQ 151115Z AUTO 04003KT 10SM CLR 12/03 A3019 RMK AO1 T01200034
KJAQ 151055Z AUTO 01004KT 10SM CLR 12/03 A3020 RMK AO1 T01180026
KJAQ 151035Z AUTO 34006KT 10SM CLR 12/02 A3020 RMK AO1 T01200020
KJAQ 151015Z AUTO 36007KT 10SM CLR 13/03 A3020 RMK AO1 T01340025
KJAQ 150955Z AUTO 35005KT 10SM CLR 12/02 A3020 RMK AO1 T01230024
KJAQ 150935Z AUTO 34004KT 10SM CLR 13/04 A3019 RMK AO1 T01280039
KJAQ 150915Z AUTO 32004KT 10SM CLR 13/04 A3019 RMK AO1 T01290040
KJAQ 150855Z AUTO 36003KT 10SM CLR 13/03 A3020 RMK AO1 T01290031
KJAQ 150835Z AUTO 00000KT 10SM CLR 12/03 A3020 RMK AO1 T01210030
KJAQ 150815Z AUTO 31003KT 10SM CLR 14/03 A3020 RMK AO1 T01360033
KJAQ 150755Z AUTO 00000KT 10SM CLR 11/03 A3020 RMK AO1 T01130033 401850046
KJAQ 150735Z AUTO 00000KT 10SM CLR 14/04 A3020 RMK AO1 T01350037
KJAQ 150715Z AUTO 35003KT 10SM CLR 15/03 A3020 RMK AO1 T01450034
KJAQ 150655Z AUTO 35004KT 10SM CLR 14/03 A3020 RMK AO1 T01430032
KJAQ 150635Z AUTO 36006KT 10SM CLR 14/03 A3019 RMK AO1 T01390033
KJAQ 150615Z AUTO 00000KT 10SM CLR 13/04 A3019 RMK AO1 T01320038
KJAQ 150555Z AUTO 00000KT 10SM CLR 12/05 A3019 RMK AO1 T01210046 10151 20105
KJAQ 150535Z AUTO 15003KT 10SM CLR 12/05 A3019 RMK AO1 T01240053
KJAQ 150515Z AUTO 00000KT 10SM CLR 12/06 A3019 RMK AO1 T01170062
KJAQ 150455Z AUTO 00000KT 10SM CLR 11/06 A3018 RMK AO1 T01080063
KJAQ 150435Z AUTO 00000KT 10SM CLR 11/06 A3018 RMK AO1 T01050062
KJAQ 150415Z AUTO 00000KT 10SM CLR 11/06 A3018 RMK AO1 T01110064
KJAQ 150355Z AUTO 00000KT 10SM CLR 12/06 A3018 RMK AO1 T01170063
KJAQ 150335Z AUTO 00000KT 10SM CLR 12/06 A3017 RMK AO1 T01150064
KJAQ 150315Z AUTO 33003KT 10SM CLR 12/06 A3016 RMK AO1 T01210064
KJAQ 150255Z AUTO 00000KT 10SM CLR 12/06 A3016 RMK AO1 T01240063
KJAQ 150235Z AUTO 00000KT 10SM CLR 12/06 A3015 RMK AO1 T01210062
KJAQ 150215Z AUTO 00000KT 10SM CLR 12/06 A3014 RMK AO1 T01240061
KJAQ 150155Z AUTO 00000KT 10SM CLR 12/06 A3014 RMK AO1 T01150062
KJAQ 150135Z AUTO 36003KT 10SM CLR 12/06 A3014 RMK AO1 T01200062
KJAQ 150115Z AUTO 00000KT 10SM CLR 13/07 A3013 RMK AO1 T01300065
KJAQ 150055Z AUTO 36005KT 10SM CLR 13/07 A3013 RMK AO1 T01320065
KJAQ 150035Z AUTO 36006KT 10SM CLR 14/07 A3013 RMK AO1 T01410065
KJAQ 150015Z AUTO 00000KT 10SM CLR 15/06 A3012 RMK AO1 T01470064
KJAQ 142355Z AUTO 00000KT 10SM CLR 15/07 A3012 RMK AO1 T01470065 10185 20115
KJAQ 142335Z AUTO 00000KT 10SM CLR 15/07 A3013 RMK AO1 T01510065
KJAQ 142315Z AUTO 36006KT 10SM CLR 16/07 A3013 RMK AO1 T01570066
KJAQ 142255Z AUTO 33006KT 10SM CLR 16/07 A3012 RMK AO1 T01600065
KJAQ 142235Z AUTO 28004KT 10SM CLR 17/05 A3012 RMK AO1 T01700052
KJAQ 142215Z AUTO 24004KT 10SM CLR 18/05 A3012 RMK AO1 T01770046
KJAQ 142155Z AUTO 00000KT 10SM CLR 18/03 A3011 RMK AO1 T01810033
KJAQ 142135Z AUTO 00000KT 10SM CLR 18/03 A3011 RMK AO1 T01830033
KJAQ 142115Z AUTO 13003KT 10SM CLR 19/04 A3011 RMK AO1 T01850040
KJAQ 142055Z AUTO 00000KT 10SM CLR 18/04 A3012 RMK AO1 T01770036
KJAQ 142035Z AUTO 16004KT 10SM CLR 17/03 A3012 RMK AO1 T01680033
KJAQ 142015Z AUTO 15006KT 10SM CLR 16/02 A3012 RMK AO1 T01630023
KJAQ 141955Z AUTO 14006KT 10SM CLR 16/03 A3013 RMK AO1 T01560029
KJAQ 141935Z AUTO 15004KT 10SM CLR 16/04 A3014 RMK AO1 T01550035
KJAQ 141915Z AUTO 00000KT 10SM CLR 15/05 A3014 RMK AO1 T01510051
KJAQ 141855Z AUTO 16003KT 10SM CLR 14/05 A3015 RMK AO1 T01420045
KJAQ 141835Z AUTO 13006KT 10SM CLR 13/05 A3015 RMK AO1 T01320049
KJAQ 141815Z AUTO 10008KT 080V140 10SM CLR 13/05 A3015 RMK AO1 T01260050
KJAQ 141755Z AUTO 12008G14KT 10SM CLR 12/04 A3015 RMK AO1 T01150044 10118 20046
KJAQ 141735Z AUTO 12006KT 10SM CLR 12/05 A3014 RMK AO1 T01160047
KJAQ 141715Z AUTO 10009KT 10SM CLR 11/05 A3013 RMK AO1 T01120048
KJAQ 141655Z AUTO 12004KT 10SM CLR 10/04 A3012 RMK AO1 T01010043
KJAQ 141635Z AUTO 10003KT 10SM CLR 09/03 A3011 RMK AO1 T00870032
KJAQ 141615Z AUTO 10004KT 10SM CLR 08/03 A3010 RMK AO1 T00780033
KJAQ 141555Z AUTO 09005KT 10SM CLR 06/03 A3010 RMK AO1 T00610030
KJAQ 141535Z AUTO 11004KT 10SM CLR 06/03 A3010 RMK AO1 T00640030
KJAQ 141515Z AUTO 12004KT 10SM CLR 06/03 A3009 RMK AO1 T00610029
KJAQ 141455Z AUTO 10004KT 10SM CLR 06/03 A3008 RMK AO1 T00570027
KJAQ 141435Z AUTO 00000KT 10SM CLR 05/02 A3008 RMK AO1 T00480024
KJAQ 141415Z AUTO 10004KT 10SM CLR 05/02 A3007 RMK AO1 T00490023
KJAQ 141355Z AUTO 11004KT 10SM CLR 05/03 A3007 RMK AO1 T00510025
KJAQ 141335Z AUTO 11005KT 10SM CLR 05/03 A3006 RMK AO1 T00530025
KJAQ 141315Z AUTO 11005KT 10SM CLR 05/03 A3006 RMK AO1 T00480027
KJAQ 141255Z AUTO 11003KT 10SM CLR 05/03 A3005 RMK AO1 T00480027
KJAQ 141235Z AUTO 12004KT 10SM CLR 05/03 A3004 RMK AO1 T00510032
KJAQ 141215Z AUTO 10003KT 10SM CLR 05/04 A3005 RMK AO1 T00510036
KJAQ 141155Z AUTO 09004KT 10SM CLR 06/04 A3004 RMK AO1 T00570036 10109 20052
KJAQ 141135Z AUTO 00000KT 10SM CLR 06/04 A3004 RMK AO1 T00550039
KJAQ 141115Z AUTO 09004KT 10SM CLR 06/04 A3004 RMK AO1 T00630041
KJAQ 141055Z AUTO 10004KT 10SM CLR 07/04 A3005 RMK AO1 T00660040
KJAQ 141035Z AUTO 00000KT 10SM CLR 09/04 A3006 RMK AO1 T00850041
KJAQ 141015Z AUTO 00000KT 10SM CLR 10/04 A3006 RMK AO1 T00950037
KJAQ 140955Z AUTO 00000KT 10SM CLR 09/04 A3005 RMK AO1 T00930036